sensor_id;sensor_type;location;lat;lon;timestamp;P1;durP1;ratioP1;P2;durP2;ratioP2
54177;SDS011;40085;53.004;6.770;2024-02-21T00:02:10;2.35;;;1.30;;
54177;SDS011;40085;53.004;6.770;2024-02-21T00:04:36;1.45;;;1.33;;
54177;SDS011;40085;53.004;6.770;2024-02-21T00:07:03;2.42;;;1.30;;
54177;SDS011;40085;53.004;6.770;2024-02-21T00:09:29;1.92;;;1.05;;
54177;SDS011;40085;53.004;6.770;2024-02-21T00:11:55;1.55;;;1.20;;
54177;SDS011;40085;53.004;6.770;2024-02-21T00:14:23;2.45;;;1.45;;
54177;SDS011;40085;53.004;6.770;2024-02-21T00:17:09;2.58;;;1.55;;
54177;SDS011;40085;53.004;6.770;2024-02-21T00:19:35;2.53;;;1.17;;
54177;SDS011;40085;53.004;6.770;2024-02-21T00:22:01;3.88;;;1.38;;
54177;SDS011;40085;53.004;6.770;2024-02-21T00:24:27;3.38;;;1.48;;
54177;SDS011;40085;53.004;6.770;2024-02-21T00:26:53;2.47;;;1.48;;
54177;SDS011;40085;53.004;6.770;2024-02-21T00:29:20;2.83;;;1.33;;
54177;SDS011;40085;53.004;6.770;2024-02-21T00:31:46;2.47;;;1.40;;
54177;SDS011;40085;53.004;6.770;2024-02-21T00:34:12;2.03;;;1.00;;
54177;SDS011;40085;53.004;6.770;2024-02-21T00:36:38;2.55;;;1.70;;
54177;SDS011;40085;53.004;6.770;2024-02-21T00:39:04;4.00;;;1.38;;
54177;SDS011;40085;53.004;6.770;2024-02-21T00:41:31;1.63;;;1.38;;
54177;SDS011;40085;53.004;6.770;2024-02-21T00:43:57;4.18;;;2.10;;
54177;SDS011;40085;53.004;6.770;2024-02-21T00:46:23;1.25;;;1.15;;
54177;SDS011;40085;53.004;6.770;2024-02-21T00:48:49;3.58;;;1.63;;
54177;SDS011;40085;53.004;6.770;2024-02-21T00:51:15;2.80;;;1.60;;
54177;SDS011;40085;53.004;6.770;2024-02-21T00:53:42;3.50;;;1.60;;
54177;SDS011;40085;53.004;6.770;2024-02-21T00:56:08;3.42;;;1.52;;
54177;SDS011;40085;53.004;6.770;2024-02-21T00:58:34;4.10;;;1.80;;
54177;SDS011;40085;53.004;6.770;2024-02-21T01:01:00;2.88;;;1.42;;
54177;SDS011;40085;53.004;6.770;2024-02-21T01:03:26;3.00;;;1.65;;
54177;SDS011;40085;53.004;6.770;2024-02-21T01:05:53;1.80;;;1.30;;
54177;SDS011;40085;53.004;6.770;2024-02-21T01:08:19;3.53;;;1.30;;
54177;SDS011;40085;53.004;6.770;2024-02-21T01:10:45;3.67;;;1.60;;
54177;SDS011;40085;53.004;6.770;2024-02-21T01:13:11;2.80;;;1.65;;
54177;SDS011;40085;53.004;6.770;2024-02-21T01:15:37;2.25;;;1.40;;
54177;SDS011;40085;53.004;6.770;2024-02-21T01:18:10;3.97;;;1.85;;
54177;SDS011;40085;53.004;6.770;2024-02-21T01:20:35;1.95;;;1.70;;
54177;SDS011;40085;53.004;6.770;2024-02-21T01:23:02;2.28;;;1.48;;
54177;SDS011;40085;53.004;6.770;2024-02-21T01:25:28;2.75;;;1.65;;
54177;SDS011;40085;53.004;6.770;2024-02-21T01:27:54;2.25;;;1.50;;
54177;SDS011;40085;53.004;6.770;2024-02-21T01:30:20;3.35;;;1.42;;
54177;SDS011;40085;53.004;6.770;2024-02-21T01:32:46;2.28;;;1.52;;
54177;SDS011;40085;53.004;6.770;2024-02-21T01:35:12;3.58;;;2.00;;
54177;SDS011;40085;53.004;6.770;2024-02-21T01:37:38;2.25;;;1.50;;
54177;SDS011;40085;53.004;6.770;2024-02-21T01:40:04;2.25;;;1.60;;
54177;SDS011;40085;53.004;6.770;2024-02-21T01:42:30;3.67;;;1.77;;
54177;SDS011;40085;53.004;6.770;2024-02-21T01:44:56;3.85;;;1.60;;
54177;SDS011;40085;53.004;6.770;2024-02-21T01:47:22;2.05;;;1.52;;
54177;SDS011;40085;53.004;6.770;2024-02-21T01:49:49;1.83;;;1.25;;
54177;SDS011;40085;53.004;6.770;2024-02-21T01:52:15;2.92;;;1.70;;
54177;SDS011;40085;53.004;6.770;2024-02-21T01:54:42;2.25;;;1.27;;
54177;SDS011;40085;53.004;6.770;2024-02-21T01:57:08;2.85;;;1.85;;
54177;SDS011;40085;53.004;6.770;2024-02-21T01:59:34;1.58;;;1.30;;
54177;SDS011;40085;53.004;6.770;2024-02-21T02:02:00;2.25;;;1.55;;
54177;SDS011;40085;53.004;6.770;2024-02-21T02:04:27;2.65;;;2.00;;
54177;SDS011;40085;53.004;6.770;2024-02-21T02:06:54;3.25;;;2.08;;
54177;SDS011;40085;53.004;6.770;2024-02-21T02:09:20;3.08;;;1.83;;
54177;SDS011;40085;53.004;6.770;2024-02-21T02:11:46;2.25;;;1.80;;
54177;SDS011;40085;53.004;6.770;2024-02-21T02:14:12;2.10;;;1.70;;
54177;SDS011;40085;53.004;6.770;2024-02-21T02:16:51;3.38;;;2.38;;
54177;SDS011;40085;53.004;6.770;2024-02-21T02:19:17;2.78;;;2.10;;
54177;SDS011;40085;53.004;6.770;2024-02-21T02:21:49;2.20;;;1.80;;
54177;SDS011;40085;53.004;6.770;2024-02-21T02:24:19;3.60;;;2.05;;
54177;SDS011;40085;53.004;6.770;2024-02-21T02:26:45;3.13;;;2.00;;
54177;SDS011;40085;53.004;6.770;2024-02-21T02:29:11;2.88;;;2.22;;
54177;SDS011;40085;53.004;6.770;2024-02-21T02:31:37;2.78;;;1.60;;
54177;SDS011;40085;53.004;6.770;2024-02-21T02:34:03;2.90;;;1.95;;
54177;SDS011;40085;53.004;6.770;2024-02-21T02:36:32;2.25;;;1.83;;
54177;SDS011;40085;53.004;6.770;2024-02-21T02:38:59;2.05;;;1.50;;
54177;SDS011;40085;53.004;6.770;2024-02-21T02:41:25;2.67;;;1.83;;
54177;SDS011;40085;53.004;6.770;2024-02-21T02:43:51;2.15;;;1.67;;
54177;SDS011;40085;53.004;6.770;2024-02-21T02:46:17;2.08;;;1.75;;
54177;SDS011;40085;53.004;6.770;2024-02-21T02:48:43;3.95;;;1.92;;
54177;SDS011;40085;53.004;6.770;2024-02-21T02:51:10;2.90;;;1.70;;
54177;SDS011;40085;53.004;6.770;2024-02-21T02:53:36;2.28;;;1.83;;
54177;SDS011;40085;53.004;6.770;2024-02-21T02:56:02;2.08;;;1.40;;
54177;SDS011;40085;53.004;6.770;2024-02-21T02:58:28;2.42;;;1.63;;
54177;SDS011;40085;53.004;6.770;2024-02-21T03:00:54;3.13;;;1.85;;
54177;SDS011;40085;53.004;6.770;2024-02-21T03:03:20;1.75;;;1.40;;
54177;SDS011;40085;53.004;6.770;2024-02-21T03:05:46;2.72;;;1.55;;
54177;SDS011;40085;53.004;6.770;2024-02-21T03:08:12;2.92;;;1.95;;
54177;SDS011;40085;53.004;6.770;2024-02-21T03:10:38;2.00;;;1.30;;
54177;SDS011;40085;53.004;6.770;2024-02-21T03:13:04;3.33;;;1.77;;
54177;SDS011;40085;53.004;6.770;2024-02-21T03:15:30;1.98;;;1.73;;
54177;SDS011;40085;53.004;6.770;2024-02-21T03:18:16;2.30;;;1.30;;
54177;SDS011;40085;53.004;6.770;2024-02-21T03:20:42;3.10;;;1.77;;
54177;SDS011;40085;53.004;6.770;2024-02-21T03:23:08;2.35;;;1.40;;
54177;SDS011;40085;53.004;6.770;2024-02-21T03:25:34;2.45;;;1.70;;
54177;SDS011;40085;53.004;6.770;2024-02-21T03:28:01;2.03;;;1.42;;
54177;SDS011;40085;53.004;6.770;2024-02-21T03:30:27;2.83;;;1.60;;
54177;SDS011;40085;53.004;6.770;2024-02-21T03:32:53;2.25;;;1.40;;
54177;SDS011;40085;53.004;6.770;2024-02-21T03:35:19;2.80;;;1.85;;
54177;SDS011;40085;53.004;6.770;2024-02-21T03:37:45;3.50;;;1.88;;
54177;SDS011;40085;53.004;6.770;2024-02-21T03:40:11;2.55;;;1.67;;
54177;SDS011;40085;53.004;6.770;2024-02-21T03:42:37;1.95;;;1.75;;
54177;SDS011;40085;53.004;6.770;2024-02-21T03:45:04;3.45;;;1.85;;
54177;SDS011;40085;53.004;6.770;2024-02-21T03:47:30;1.83;;;1.60;;
54177;SDS011;40085;53.004;6.770;2024-02-21T03:49:56;2.53;;;1.17;;
54177;SDS011;40085;53.004;6.770;2024-02-21T03:52:23;1.33;;;1.23;;
54177;SDS011;40085;53.004;6.770;2024-02-21T03:54:49;2.58;;;1.65;;
54177;SDS011;40085;53.004;6.770;2024-02-21T03:57:15;2.55;;;1.67;;
54177;SDS011;40085;53.004;6.770;2024-02-21T03:59:42;2.25;;;1.83;;
54177;SDS011;40085;53.004;6.770;2024-02-21T04:02:08;4.35;;;1.92;;
54177;SDS011;40085;53.004;6.770;2024-02-21T04:04:34;2.47;;;1.45;;
54177;SDS011;40085;53.004;6.770;2024-02-21T04:07:04;1.85;;;1.40;;
54177;SDS011;40085;53.004;6.770;2024-02-21T04:09:33;4.20;;;1.70;;
54177;SDS011;40085;53.004;6.770;2024-02-21T04:12:00;2.63;;;1.70;;
54177;SDS011;40085;53.004;6.770;2024-02-21T04:14:26;2.00;;;1.40;;
54177;SDS011;40085;53.004;6.770;2024-02-21T04:17:13;2.40;;;2.20;;
54177;SDS011;40085;53.004;6.770;2024-02-21T04:19:42;2.40;;;1.77;;
54177;SDS011;40085;53.004;6.770;2024-02-21T04:22:08;3.35;;;2.25;;
54177;SDS011;40085;53.004;6.770;2024-02-21T04:24:34;1.55;;;1.40;;
54177;SDS011;40085;53.004;6.770;2024-02-21T04:27:00;3.17;;;1.45;;
54177;SDS011;40085;53.004;6.770;2024-02-21T04:29:27;4.82;;;1.95;;
54177;SDS011;40085;53.004;6.770;2024-02-21T04:31:53;3.60;;;1.67;;
54177;SDS011;40085;53.004;6.770;2024-02-21T04:34:19;2.80;;;1.55;;
54177;SDS011;40085;53.004;6.770;2024-02-21T04:36:45;1.70;;;1.50;;
54177;SDS011;40085;53.004;6.770;2024-02-21T04:39:11;2.17;;;1.70;;
54177;SDS011;40085;53.004;6.770;2024-02-21T04:41:37;2.00;;;1.60;;
54177;SDS011;40085;53.004;6.770;2024-02-21T04:44:03;3.45;;;1.88;;
54177;SDS011;40085;53.004;6.770;2024-02-21T04:46:29;2.13;;;1.50;;
54177;SDS011;40085;53.004;6.770;2024-02-21T04:48:55;2.35;;;1.75;;
54177;SDS011;40085;53.004;6.770;2024-02-21T04:51:21;2.47;;;1.63;;
54177;SDS011;40085;53.004;6.770;2024-02-21T04:53:48;3.10;;;1.80;;
54177;SDS011;40085;53.004;6.770;2024-02-21T04:56:14;2.97;;;2.08;;
54177;SDS011;40085;53.004;6.770;2024-02-21T04:58:40;3.45;;;1.83;;
54177;SDS011;40085;53.004;6.770;2024-02-21T05:01:06;3.15;;;1.90;;
54177;SDS011;40085;53.004;6.770;2024-02-21T05:03:33;2.53;;;1.52;;
54177;SDS011;40085;53.004;6.770;2024-02-21T05:05:59;2.47;;;1.83;;
54177;SDS011;40085;53.004;6.770;2024-02-21T05:08:25;3.58;;;2.42;;
54177;SDS011;40085;53.004;6.770;2024-02-21T05:10:52;2.78;;;1.75;;
54177;SDS011;40085;53.004;6.770;2024-02-21T05:13:18;2.78;;;1.90;;
54177;SDS011;40085;53.004;6.770;2024-02-21T05:15:44;2.33;;;1.80;;
54177;SDS011;40085;53.004;6.770;2024-02-21T05:18:16;2.72;;;1.83;;
54177;SDS011;40085;53.004;6.770;2024-02-21T05:20:42;3.85;;;2.03;;
54177;SDS011;40085;53.004;6.770;2024-02-21T05:23:08;3.00;;;1.92;;
54177;SDS011;40085;53.004;6.770;2024-02-21T05:25:34;3.10;;;1.98;;
54177;SDS011;40085;53.004;6.770;2024-02-21T05:28:00;3.20;;;2.25;;
54177;SDS011;40085;53.004;6.770;2024-02-21T05:30:28;3.05;;;2.20;;
54177;SDS011;40085;53.004;6.770;2024-02-21T05:32:54;4.15;;;2.33;;
54177;SDS011;40085;53.004;6.770;2024-02-21T05:35:24;4.60;;;3.00;;
54177;SDS011;40085;53.004;6.770;2024-02-21T05:37:50;3.40;;;2.42;;
54177;SDS011;40085;53.004;6.770;2024-02-21T05:40:17;4.80;;;2.75;;
54177;SDS011;40085;53.004;6.770;2024-02-21T05:42:43;6.50;;;3.00;;
54177;SDS011;40085;53.004;6.770;2024-02-21T05:45:09;3.28;;;2.60;;
54177;SDS011;40085;53.004;6.770;2024-02-21T05:47:35;3.92;;;2.53;;
54177;SDS011;40085;53.004;6.770;2024-02-21T05:50:01;5.63;;;3.15;;
54177;SDS011;40085;53.004;6.770;2024-02-21T05:52:27;3.75;;;2.85;;
54177;SDS011;40085;53.004;6.770;2024-02-21T05:54:53;3.95;;;2.95;;
54177;SDS011;40085;53.004;6.770;2024-02-21T05:57:19;5.50;;;2.60;;
54177;SDS011;40085;53.004;6.770;2024-02-21T05:59:45;4.75;;;2.92;;
54177;SDS011;40085;53.004;6.770;2024-02-21T06:02:12;6.47;;;3.30;;
54177;SDS011;40085;53.004;6.770;2024-02-21T06:04:38;3.90;;;2.38;;
54177;SDS011;40085;53.004;6.770;2024-02-21T06:07:04;3.95;;;2.92;;
54177;SDS011;40085;53.004;6.770;2024-02-21T06:09:30;5.88;;;2.92;;
54177;SDS011;40085;53.004;6.770;2024-02-21T06:11:57;5.85;;;3.42;;
54177;SDS011;40085;53.004;6.770;2024-02-21T06:14:23;5.72;;;3.42;;
54177;SDS011;40085;53.004;6.770;2024-02-21T06:16:49;4.38;;;2.63;;
54177;SDS011;40085;53.004;6.770;2024-02-21T06:19:21;4.40;;;2.80;;
54177;SDS011;40085;53.004;6.770;2024-02-21T06:21:47;5.03;;;2.75;;
54177;SDS011;40085;53.004;6.770;2024-02-21T06:24:13;3.25;;;2.60;;
54177;SDS011;40085;53.004;6.770;2024-02-21T06:26:40;4.82;;;2.88;;
54177;SDS011;40085;53.004;6.770;2024-02-21T06:29:06;4.97;;;3.05;;
54177;SDS011;40085;53.004;6.770;2024-02-21T06:31:32;5.03;;;2.40;;
54177;SDS011;40085;53.004;6.770;2024-02-21T06:33:58;5.28;;;2.92;;
54177;SDS011;40085;53.004;6.770;2024-02-21T06:36:24;5.80;;;3.20;;
54177;SDS011;40085;53.004;6.770;2024-02-21T06:38:50;4.68;;;3.13;;
54177;SDS011;40085;53.004;6.770;2024-02-21T06:41:17;3.35;;;2.80;;
54177;SDS011;40085;53.004;6.770;2024-02-21T06:43:46;4.15;;;3.10;;
54177;SDS011;40085;53.004;6.770;2024-02-21T06:46:22;7.03;;;3.53;;
54177;SDS011;40085;53.004;6.770;2024-02-21T06:48:48;6.40;;;3.38;;
54177;SDS011;40085;53.004;6.770;2024-02-21T06:51:14;6.03;;;4.13;;
54177;SDS011;40085;53.004;6.770;2024-02-21T06:53:40;4.03;;;2.85;;
54177;SDS011;40085;53.004;6.770;2024-02-21T06:56:07;6.50;;;3.25;;
54177;SDS011;40085;53.004;6.770;2024-02-21T06:58:33;5.10;;;2.95;;
54177;SDS011;40085;53.004;6.770;2024-02-21T07:01:00;4.22;;;2.85;;
54177;SDS011;40085;53.004;6.770;2024-02-21T07:03:26;3.70;;;2.80;;
54177;SDS011;40085;53.004;6.770;2024-02-21T07:05:52;4.88;;;3.08;;
54177;SDS011;40085;53.004;6.770;2024-02-21T07:08:18;6.90;;;2.85;;
54177;SDS011;40085;53.004;6.770;2024-02-21T07:10:45;4.07;;;2.65;;
54177;SDS011;40085;53.004;6.770;2024-02-21T07:13:11;4.18;;;2.30;;
54177;SDS011;40085;53.004;6.770;2024-02-21T07:15:44;3.15;;;2.60;;
54177;SDS011;40085;53.004;6.770;2024-02-21T07:18:10;4.05;;;2.20;;
54177;SDS011;40085;53.004;6.770;2024-02-21T07:20:36;5.68;;;2.35;;
54177;SDS011;40085;53.004;6.770;2024-02-21T07:23:03;3.58;;;2.20;;
54177;SDS011;40085;53.004;6.770;2024-02-21T07:25:29;4.20;;;2.65;;
54177;SDS011;40085;53.004;6.770;2024-02-21T07:27:55;3.42;;;2.20;;
54177;SDS011;40085;53.004;6.770;2024-02-21T07:30:21;3.80;;;2.75;;
54177;SDS011;40085;53.004;6.770;2024-02-21T07:32:50;2.55;;;2.05;;
54177;SDS011;40085;53.004;6.770;2024-02-21T07:35:19;2.50;;;1.85;;
54177;SDS011;40085;53.004;6.770;2024-02-21T07:37:45;3.20;;;2.33;;
54177;SDS011;40085;53.004;6.770;2024-02-21T07:40:12;4.85;;;2.55;;
54177;SDS011;40085;53.004;6.770;2024-02-21T07:42:39;7.60;;;3.15;;
54177;SDS011;40085;53.004;6.770;2024-02-21T07:45:05;3.70;;;2.22;;
54177;SDS011;40085;53.004;6.770;2024-02-21T07:47:31;3.97;;;2.50;;
54177;SDS011;40085;53.004;6.770;2024-02-21T07:49:57;3.00;;;2.30;;
54177;SDS011;40085;53.004;6.770;2024-02-21T07:52:23;4.63;;;2.60;;
54177;SDS011;40085;53.004;6.770;2024-02-21T07:54:50;4.43;;;2.83;;
54177;SDS011;40085;53.004;6.770;2024-02-21T07:57:16;3.00;;;2.00;;
54177;SDS011;40085;53.004;6.770;2024-02-21T07:59:42;5.22;;;3.17;;
54177;SDS011;40085;53.004;6.770;2024-02-21T08:02:08;2.50;;;2.30;;
54177;SDS011;40085;53.004;6.770;2024-02-21T08:04:34;4.68;;;2.90;;
54177;SDS011;40085;53.004;6.770;2024-02-21T08:07:00;2.85;;;2.10;;
54177;SDS011;40085;53.004;6.770;2024-02-21T08:09:29;3.75;;;2.88;;
54177;SDS011;40085;53.004;6.770;2024-02-21T08:11:55;3.30;;;2.25;;
54177;SDS011;40085;53.004;6.770;2024-02-21T08:14:21;3.10;;;2.50;;
54177;SDS011;40085;53.004;6.770;2024-02-21T08:16:49;2.63;;;2.40;;
54177;SDS011;40085;53.004;6.770;2024-02-21T08:19:22;2.53;;;2.33;;
54177;SDS011;40085;53.004;6.770;2024-02-21T08:21:48;4.72;;;2.70;;
54177;SDS011;40085;53.004;6.770;2024-02-21T08:24:14;2.90;;;2.47;;
54177;SDS011;40085;53.004;6.770;2024-02-21T08:26:41;3.97;;;3.38;;
54177;SDS011;40085;53.004;6.770;2024-02-21T08:29:07;4.40;;;2.97;;
54177;SDS011;40085;53.004;6.770;2024-02-21T08:31:33;6.05;;;3.85;;
54177;SDS011;40085;53.004;6.770;2024-02-21T08:34:00;3.35;;;3.05;;
54177;SDS011;40085;53.004;6.770;2024-02-21T08:36:32;4.32;;;3.33;;
54177;SDS011;40085;53.004;6.770;2024-02-21T08:38:59;3.28;;;2.97;;
54177;SDS011;40085;53.004;6.770;2024-02-21T08:41:25;3.25;;;2.78;;
54177;SDS011;40085;53.004;6.770;2024-02-21T08:43:51;3.55;;;3.25;;
54177;SDS011;40085;53.004;6.770;2024-02-21T08:46:19;3.30;;;3.00;;
54177;SDS011;40085;53.004;6.770;2024-02-21T08:48:45;3.47;;;3.17;;
54177;SDS011;40085;53.004;6.770;2024-02-21T08:51:12;3.47;;;3.10;;
54177;SDS011;40085;53.004;6.770;2024-02-21T08:53:38;4.28;;;3.67;;
54177;SDS011;40085;53.004;6.770;2024-02-21T08:56:05;4.55;;;4.07;;
54177;SDS011;40085;53.004;6.770;2024-02-21T08:58:32;4.60;;;3.60;;
54177;SDS011;40085;53.004;6.770;2024-02-21T09:00:58;5.50;;;3.50;;
54177;SDS011;40085;53.004;6.770;2024-02-21T09:03:24;3.95;;;3.40;;
54177;SDS011;40085;53.004;6.770;2024-02-21T09:05:50;4.10;;;3.55;;
54177;SDS011;40085;53.004;6.770;2024-02-21T09:08:16;6.07;;;3.72;;
54177;SDS011;40085;53.004;6.770;2024-02-21T09:10:43;4.47;;;3.65;;
54177;SDS011;40085;53.004;6.770;2024-02-21T09:13:09;4.00;;;3.70;;
54177;SDS011;40085;53.004;6.770;2024-02-21T09:15:35;4.15;;;3.70;;
54177;SDS011;40085;53.004;6.770;2024-02-21T09:18:15;4.53;;;3.55;;
54177;SDS011;40085;53.004;6.770;2024-02-21T09:20:42;4.25;;;3.85;;
54177;SDS011;40085;53.004;6.770;2024-02-21T09:23:08;4.28;;;3.80;;
54177;SDS011;40085;53.004;6.770;2024-02-21T09:25:34;3.78;;;3.45;;
54177;SDS011;40085;53.004;6.770;2024-02-21T09:28:01;4.13;;;3.80;;
54177;SDS011;40085;53.004;6.770;2024-02-21T09:30:27;4.18;;;3.78;;
54177;SDS011;40085;53.004;6.770;2024-02-21T09:32:54;4.18;;;3.70;;
54177;SDS011;40085;53.004;6.770;2024-02-21T09:35:20;3.83;;;3.53;;
54177;SDS011;40085;53.004;6.770;2024-02-21T09:37:51;4.20;;;3.80;;
54177;SDS011;40085;53.004;6.770;2024-02-21T09:40:18;4.82;;;3.80;;
54177;SDS011;40085;53.004;6.770;2024-02-21T09:42:44;4.25;;;3.88;;
54177;SDS011;40085;53.004;6.770;2024-02-21T09:45:21;3.95;;;3.55;;
54177;SDS011;40085;53.004;6.770;2024-02-21T09:48:00;4.78;;;4.10;;
54177;SDS011;40085;53.004;6.770;2024-02-21T09:50:30;5.97;;;4.40;;
54177;SDS011;40085;53.004;6.770;2024-02-21T09:52:58;5.93;;;4.68;;
54177;SDS011;40085;53.004;6.770;2024-02-21T09:55:24;4.35;;;3.95;;
54177;SDS011;40085;53.004;6.770;2024-02-21T09:57:52;4.50;;;4.20;;
54177;SDS011;40085;53.004;6.770;2024-02-21T10:00:19;4.28;;;3.88;;
54177;SDS011;40085;53.004;6.770;2024-02-21T10:02:49;5.07;;;3.90;;
54177;SDS011;40085;53.004;6.770;2024-02-21T10:05:16;4.10;;;3.45;;
54177;SDS011;40085;53.004;6.770;2024-02-21T10:07:43;4.15;;;3.83;;
54177;SDS011;40085;53.004;6.770;2024-02-21T10:10:09;3.53;;;3.22;;
54177;SDS011;40085;53.004;6.770;2024-02-21T10:12:35;4.05;;;3.70;;
54177;SDS011;40085;53.004;6.770;2024-02-21T10:15:02;4.75;;;4.03;;
54177;SDS011;40085;53.004;6.770;2024-02-21T10:17:48;4.88;;;4.13;;
54177;SDS011;40085;53.004;6.770;2024-02-21T10:20:14;4.00;;;3.60;;
54177;SDS011;40085;53.004;6.770;2024-02-21T10:22:41;4.55;;;3.75;;
54177;SDS011;40085;53.004;6.770;2024-02-21T10:25:11;4.50;;;3.78;;
54177;SDS011;40085;53.004;6.770;2024-02-21T10:27:37;4.82;;;3.75;;
54177;SDS011;40085;53.004;6.770;2024-02-21T10:30:13;6.30;;;4.43;;
54177;SDS011;40085;53.004;6.770;2024-02-21T10:32:55;4.10;;;3.35;;
54177;SDS011;40085;53.004;6.770;2024-02-21T10:35:31;3.50;;;2.90;;
54177;SDS011;40085;53.004;6.770;2024-02-21T10:37:57;4.75;;;3.72;;
54177;SDS011;40085;53.004;6.770;2024-02-21T10:40:24;3.38;;;3.05;;
54177;SDS011;40085;53.004;6.770;2024-02-21T10:42:51;4.85;;;3.55;;
54177;SDS011;40085;53.004;6.770;2024-02-21T10:45:20;3.40;;;3.10;;
54177;SDS011;40085;53.004;6.770;2024-02-21T10:47:47;4.65;;;3.60;;
54177;SDS011;40085;53.004;6.770;2024-02-21T10:50:14;3.83;;;3.38;;
54177;SDS011;40085;53.004;6.770;2024-02-21T10:52:46;3.50;;;2.85;;
54177;SDS011;40085;53.004;6.770;2024-02-21T10:55:19;4.18;;;2.97;;
54177;SDS011;40085;53.004;6.770;2024-02-21T10:57:48;4.53;;;3.05;;
54177;SDS011;40085;53.004;6.770;2024-02-21T11:00:16;3.63;;;2.97;;
54177;SDS011;40085;53.004;6.770;2024-02-21T11:02:44;3.67;;;3.38;;
54177;SDS011;40085;53.004;6.770;2024-02-21T11:05:10;3.22;;;2.60;;
54177;SDS011;40085;53.004;6.770;2024-02-21T11:07:37;4.28;;;3.15;;
54177;SDS011;40085;53.004;6.770;2024-02-21T11:10:03;3.53;;;2.55;;
54177;SDS011;40085;53.004;6.770;2024-02-21T11:12:32;3.33;;;2.58;;
54177;SDS011;40085;53.004;6.770;2024-02-21T11:15:07;3.55;;;2.67;;
54177;SDS011;40085;53.004;6.770;2024-02-21T11:17:55;4.35;;;2.55;;
54177;SDS011;40085;53.004;6.770;2024-02-21T11:20:21;4.32;;;2.78;;
54177;SDS011;40085;53.004;6.770;2024-02-21T11:22:57;2.33;;;2.08;;
54177;SDS011;40085;53.004;6.770;2024-02-21T11:25:23;2.05;;;1.73;;
54177;SDS011;40085;53.004;6.770;2024-02-21T11:27:49;3.92;;;2.75;;
54177;SDS011;40085;53.004;6.770;2024-02-21T11:30:16;2.70;;;2.33;;
54177;SDS011;40085;53.004;6.770;2024-02-21T11:32:47;3.35;;;2.60;;
54177;SDS011;40085;53.004;6.770;2024-02-21T11:35:19;2.25;;;2.05;;
54177;SDS011;40085;53.004;6.770;2024-02-21T11:37:45;3.20;;;2.58;;
54177;SDS011;40085;53.004;6.770;2024-02-21T11:40:11;2.92;;;2.20;;
54177;SDS011;40085;53.004;6.770;2024-02-21T11:42:38;2.10;;;1.85;;
54177;SDS011;40085;53.004;6.770;2024-02-21T11:45:04;2.78;;;2.17;;
54177;SDS011;40085;53.004;6.770;2024-02-21T11:47:30;2.95;;;2.30;;
54177;SDS011;40085;53.004;6.770;2024-02-21T11:49:56;1.95;;;1.75;;
54177;SDS011;40085;53.004;6.770;2024-02-21T11:52:23;2.40;;;2.13;;
54177;SDS011;40085;53.004;6.770;2024-02-21T11:54:50;3.08;;;2.55;;
54177;SDS011;40085;53.004;6.770;2024-02-21T11:57:17;1.95;;;1.83;;
54177;SDS011;40085;53.004;6.770;2024-02-21T11:59:44;3.28;;;2.30;;
54177;SDS011;40085;53.004;6.770;2024-02-21T12:02:11;2.72;;;2.03;;
54177;SDS011;40085;53.004;6.770;2024-02-21T12:04:37;2.47;;;1.75;;
54177;SDS011;40085;53.004;6.770;2024-02-21T12:07:03;2.95;;;1.83;;
54177;SDS011;40085;53.004;6.770;2024-02-21T12:09:29;2.95;;;2.25;;
54177;SDS011;40085;53.004;6.770;2024-02-21T12:11:59;3.20;;;2.45;;
54177;SDS011;40085;53.004;6.770;2024-02-21T12:14:26;2.77;;;2.10;;
54177;SDS011;40085;53.004;6.770;2024-02-21T12:16:53;2.33;;;2.13;;
54177;SDS011;40085;53.004;6.770;2024-02-21T12:19:26;2.72;;;2.00;;
54177;SDS011;40085;53.004;6.770;2024-02-21T12:21:53;2.00;;;1.77;;
54177;SDS011;40085;53.004;6.770;2024-02-21T12:24:23;3.22;;;2.28;;
54177;SDS011;40085;53.004;6.770;2024-02-21T12:26:50;2.03;;;1.80;;
54177;SDS011;40085;53.004;6.770;2024-02-21T12:29:17;2.55;;;2.10;;
54177;SDS011;40085;53.004;6.770;2024-02-21T12:31:43;2.20;;;2.00;;
54177;SDS011;40085;53.004;6.770;2024-02-21T12:34:10;3.20;;;2.40;;
54177;SDS011;40085;53.004;6.770;2024-02-21T12:36:40;2.13;;;1.90;;
54177;SDS011;40085;53.004;6.770;2024-02-21T12:39:07;1.92;;;1.70;;
54177;SDS011;40085;53.004;6.770;2024-02-21T12:41:34;1.52;;;1.42;;
54177;SDS011;40085;53.004;6.770;2024-02-21T12:44:03;1.83;;;1.35;;
54177;SDS011;40085;53.004;6.770;2024-02-21T12:46:29;1.98;;;1.73;;
54177;SDS011;40085;53.004;6.770;2024-02-21T12:48:55;1.98;;;1.77;;
54177;SDS011;40085;53.004;6.770;2024-02-21T12:51:21;1.83;;;1.73;;
54177;SDS011;40085;53.004;6.770;2024-02-21T12:53:47;1.52;;;1.30;;
54177;SDS011;40085;53.004;6.770;2024-02-21T12:56:14;1.67;;;1.58;;
54177;SDS011;40085;53.004;6.770;2024-02-21T12:58:40;1.60;;;1.42;;
54177;SDS011;40085;53.004;6.770;2024-02-21T13:01:06;1.35;;;1.23;;
54177;SDS011;40085;53.004;6.770;2024-02-21T13:03:33;1.35;;;1.25;;
54177;SDS011;40085;53.004;6.770;2024-02-21T13:05:59;1.42;;;1.30;;
54177;SDS011;40085;53.004;6.770;2024-02-21T13:08:25;1.52;;;1.42;;
54177;SDS011;40085;53.004;6.770;2024-02-21T13:10:51;1.73;;;1.63;;
54177;SDS011;40085;53.004;6.770;2024-02-21T13:13:17;2.22;;;1.60;;
54177;SDS011;40085;53.004;6.770;2024-02-21T13:15:43;1.20;;;1.10;;
54177;SDS011;40085;53.004;6.770;2024-02-21T13:18:23;0.82;;;0.80;;
54177;SDS011;40085;53.004;6.770;2024-02-21T13:20:49;1.33;;;0.90;;
54177;SDS011;40085;53.004;6.770;2024-02-21T13:23:15;0.93;;;0.90;;
54177;SDS011;40085;53.004;6.770;2024-02-21T13:25:41;1.20;;;1.10;;
54177;SDS011;40085;53.004;6.770;2024-02-21T13:28:07;0.93;;;0.88;;
54177;SDS011;40085;53.004;6.770;2024-02-21T13:30:34;1.27;;;1.17;;
54177;SDS011;40085;53.004;6.770;2024-02-21T13:33:00;1.65;;;1.00;;
54177;SDS011;40085;53.004;6.770;2024-02-21T13:35:28;1.20;;;1.10;;
54177;SDS011;40085;53.004;6.770;2024-02-21T13:37:54;1.25;;;1.00;;
54177;SDS011;40085;53.004;6.770;2024-02-21T13:40:20;1.15;;;0.90;;
54177;SDS011;40085;53.004;6.770;2024-02-21T13:42:46;1.52;;;1.02;;
54177;SDS011;40085;53.004;6.770;2024-02-21T13:45:14;0.95;;;0.90;;
54177;SDS011;40085;53.004;6.770;2024-02-21T13:47:40;1.30;;;1.20;;
54177;SDS011;40085;53.004;6.770;2024-02-21T13:50:06;1.35;;;1.25;;
54177;SDS011;40085;53.004;6.770;2024-02-21T13:52:35;1.30;;;1.17;;
54177;SDS011;40085;53.004;6.770;2024-02-21T13:55:01;1.20;;;1.10;;
54177;SDS011;40085;53.004;6.770;2024-02-21T13:57:28;1.23;;;1.13;;
54177;SDS011;40085;53.004;6.770;2024-02-21T13:59:54;1.23;;;1.10;;
54177;SDS011;40085;53.004;6.770;2024-02-21T14:02:20;1.52;;;1.00;;
54177;SDS011;40085;53.004;6.770;2024-02-21T14:04:46;2.30;;;1.20;;
54177;SDS011;40085;53.004;6.770;2024-02-21T14:07:12;1.60;;;1.08;;
54177;SDS011;40085;53.004;6.770;2024-02-21T14:09:38;1.00;;;1.00;;
54177;SDS011;40085;53.004;6.770;2024-02-21T14:12:04;1.15;;;1.05;;
54177;SDS011;40085;53.004;6.770;2024-02-21T14:14:33;1.55;;;1.20;;
54177;SDS011;40085;53.004;6.770;2024-02-21T14:16:59;2.10;;;1.60;;
54177;SDS011;40085;53.004;6.770;2024-02-21T14:19:46;1.40;;;1.30;;
54177;SDS011;40085;53.004;6.770;2024-02-21T14:22:12;2.33;;;1.42;;
54177;SDS011;40085;53.004;6.770;2024-02-21T14:24:38;1.45;;;1.33;;
54177;SDS011;40085;53.004;6.770;2024-02-21T14:27:04;1.38;;;1.27;;
54177;SDS011;40085;53.004;6.770;2024-02-21T14:29:30;1.13;;;1.02;;
54177;SDS011;40085;53.004;6.770;2024-02-21T14:31:56;1.58;;;1.33;;
54177;SDS011;40085;53.004;6.770;2024-02-21T14:34:22;1.40;;;1.30;;
54177;SDS011;40085;53.004;6.770;2024-02-21T14:36:48;1.52;;;1.40;;
54177;SDS011;40085;53.004;6.770;2024-02-21T14:39:14;1.20;;;1.10;;
54177;SDS011;40085;53.004;6.770;2024-02-21T14:41:40;1.30;;;1.20;;
54177;SDS011;40085;53.004;6.770;2024-02-21T14:44:06;1.40;;;1.30;;
54177;SDS011;40085;53.004;6.770;2024-02-21T14:46:34;1.48;;;1.30;;
54177;SDS011;40085;53.004;6.770;2024-02-21T14:49:00;2.50;;;1.50;;